createdAt,value
2022-10-15T00:01:43.296Z,94.47
2022-10-15T00:04:10.510Z,94.30
2022-10-15T00:06:37.656Z,91.70
2022-10-15T00:09:05.086Z,93.95
2022-10-15T00:11:32.811Z,84.03
2022-10-15T00:14:00.622Z,91.43
2022-10-15T00:16:29.257Z,87.75
2022-10-15T00:18:57.518Z,95.80
2022-10-15T00:21:24.712Z,88.65
2022-10-15T00:23:52.048Z,86.80
2022-10-15T00:26:20.602Z,100.45
2022-10-15T00:28:49.928Z,104.13
2022-10-15T00:31:18.322Z,109.57
2022-10-15T00:33:45.476Z,97.25
2022-10-15T00:36:16.798Z,104.07
2022-10-15T00:38:44.107Z,105.43
2022-10-15T00:41:14.194Z,110.50
2022-10-15T00:43:44.476Z,107.55
2022-10-15T00:46:30.456Z,118.85
2022-10-15T00:51:34.517Z,138.38
2022-10-15T00:54:02.102Z,147.63
2022-10-15T00:56:31.344Z,153.90
2022-10-15T00:58:58.860Z,148.63
2022-10-15T01:01:26.217Z,163.18
2022-10-15T01:03:55.165Z,161.27
2022-10-15T01:06:22.537Z,155.80
2022-10-15T01:08:49.684Z,158.02
2022-10-15T01:11:25.792Z,167.45
2022-10-15T01:14:11.204Z,169.93
2022-10-15T01:16:47.540Z,174.93
2022-10-15T01:19:27.083Z,163.43
2022-10-15T01:21:57.469Z,168.65
2022-10-15T01:24:27.620Z,168.77
2022-10-15T01:27:04.189Z,179.85
2022-10-15T01:29:46.633Z,172.73
2022-10-15T01:32:20.590Z,182.60
2022-10-15T01:34:47.744Z,187.15
2022-10-15T01:37:21.193Z,172.55
2022-10-15T01:39:52.625Z,179.55
2022-10-15T01:42:23.785Z,168.55
2022-10-15T01:44:55.473Z,174.25
2022-10-15T01:47:31.137Z,179.38
2022-10-15T01:50:00.197Z,181.57
2022-10-15T01:54:59.158Z,175.20
2022-10-15T01:57:28.007Z,194.50
2022-10-15T01:59:55.511Z,178.18
2022-10-15T02:02:22.906Z,192.00
2022-10-15T02:04:50.529Z,197.98
2022-10-15T02:07:17.698Z,192.85
2022-10-15T02:09:57.973Z,189.48
2022-10-15T02:12:43.753Z,186.82
2022-10-15T02:18:02.313Z,199.45
2022-10-15T02:20:29.412Z,187.70
2022-10-15T02:23:00.706Z,199.40
2022-10-15T02:25:29.373Z,202.10
2022-10-15T02:27:57.953Z,194.23
2022-10-15T02:30:25.394Z,192.60
2022-10-15T02:32:54.204Z,185.23
2022-10-15T02:35:22.641Z,192.15
2022-10-15T02:37:51.286Z,187.82
2022-10-15T02:40:18.838Z,190.68
2022-10-15T02:42:46.065Z,206.60
2022-10-15T02:45:13.201Z,183.80
2022-10-15T02:47:40.364Z,184.27
2022-10-15T02:50:07.616Z,192.15
2022-10-15T02:52:34.760Z,192.13
2022-10-15T02:55:02.429Z,187.80
2022-10-15T02:57:29.586Z,190.25
2022-10-15T02:59:56.715Z,186.40
2022-10-15T03:02:23.893Z,178.05
2022-10-15T03:04:51.047Z,179.68
2022-10-15T03:07:18.173Z,178.75
2022-10-15T03:09:45.356Z,187.35
2022-10-15T03:12:12.541Z,183.77
2022-10-15T03:14:39.704Z,176.05
2022-10-15T03:17:06.920Z,177.55
2022-10-15T03:19:34.044Z,185.77
2022-10-15T03:22:01.202Z,184.63
2022-10-15T03:24:28.357Z,176.52
2022-10-15T03:26:55.818Z,175.43
2022-10-15T03:29:22.942Z,173.57
2022-10-15T03:31:50.288Z,175.20
2022-10-15T03:34:17.445Z,182.65
2022-10-15T03:36:44.577Z,175.90
2022-10-15T03:39:12.481Z,182.40
2022-10-15T03:41:40.102Z,177.40
2022-10-15T03:44:08.131Z,185.32
2022-10-15T03:46:35.445Z,187.38
2022-10-15T03:49:02.716Z,179.13
2022-10-15T03:51:31.767Z,172.25
2022-10-15T03:53:59.088Z,173.55
2022-10-15T03:56:26.270Z,174.82
2022-10-15T03:58:53.665Z,176.07
2022-10-15T04:01:20.970Z,169.02
2022-10-15T04:03:48.236Z,174.77
2022-10-15T04:06:15.372Z,169.98
2022-10-15T04:08:42.612Z,173.10
2022-10-15T04:11:09.854Z,167.57
2022-10-15T04:13:37.045Z,172.85
2022-10-15T04:16:07.373Z,165.20
2022-10-15T04:18:34.556Z,167.20
2022-10-15T04:21:02.160Z,172.25
2022-10-15T04:23:29.312Z,172.90
2022-10-15T04:26:00.232Z,175.75
2022-10-15T04:28:28.077Z,163.10
2022-10-15T04:31:01.849Z,172.90
2022-10-15T04:33:29.224Z,155.50
2022-10-15T04:36:07.182Z,166.68
2022-10-15T04:38:34.709Z,173.93
2022-10-15T04:41:03.473Z,159.00
2022-10-15T04:43:30.752Z,158.75
2022-10-15T04:46:01.681Z,150.10
2022-10-15T04:48:29.361Z,164.55
2022-10-15T04:50:56.860Z,153.90
2022-10-15T04:53:24.042Z,158.40
2022-10-15T04:55:51.233Z,147.73
2022-10-15T04:58:18.376Z,145.43
2022-10-15T05:00:45.560Z,145.95
2022-10-15T05:03:12.750Z,145.98
2022-10-15T05:05:39.886Z,142.95
2022-10-15T05:08:07.068Z,141.82
2022-10-15T05:10:34.224Z,153.27
2022-10-15T05:13:01.380Z,145.10
2022-10-15T05:15:28.558Z,141.35
2022-10-15T05:17:56.134Z,142.38
2022-10-15T05:20:23.326Z,135.38
2022-10-15T05:22:50.478Z,139.05
2022-10-15T05:25:17.668Z,145.68
2022-10-15T05:27:45.051Z,130.43
2022-10-15T05:30:12.371Z,140.10
2022-10-15T05:32:39.519Z,129.90
2022-10-15T05:35:07.073Z,133.68
2022-10-15T05:37:34.221Z,130.77
2022-10-15T05:40:01.345Z,129.27
2022-10-15T05:42:28.476Z,130.73
2022-10-15T05:44:55.837Z,122.28
2022-10-15T05:47:23.118Z,126.78
2022-10-15T05:49:50.546Z,115.25
2022-10-15T05:52:17.841Z,131.43
2022-10-15T05:54:45.011Z,132.57
2022-10-15T05:57:12.149Z,130.63
2022-10-15T05:59:39.276Z,133.30
2022-10-15T06:02:06.566Z,127.25
2022-10-15T06:04:35.709Z,130.70
2022-10-15T06:07:03.279Z,126.07
2022-10-15T06:09:30.721Z,125.05
2022-10-15T06:11:57.998Z,139.07
2022-10-15T06:14:25.190Z,132.82
2022-10-15T06:16:54.640Z,130.93
2022-10-15T06:19:22.008Z,134.23
2022-10-15T06:21:49.136Z,122.35
2022-10-15T06:24:17.486Z,135.70
2022-10-15T06:26:44.798Z,130.18
2022-10-15T06:29:12.026Z,124.85
2022-10-15T06:31:39.148Z,133.52
2022-10-15T06:34:06.301Z,151.70
2022-10-15T06:36:33.516Z,131.63
2022-10-15T06:39:00.652Z,140.90
2022-10-15T06:41:27.878Z,129.35
2022-10-15T06:43:55.087Z,136.27
2022-10-15T06:46:22.289Z,136.50
2022-10-15T06:48:50.742Z,132.10
2022-10-15T06:51:17.942Z,132.65
2022-10-15T06:53:45.153Z,139.55
2022-10-15T06:56:12.437Z,134.60
2022-10-15T06:58:41.800Z,144.95
2022-10-15T07:01:10.133Z,133.20
2022-10-15T07:03:39.098Z,135.18
2022-10-15T07:06:07.105Z,123.57
2022-10-15T07:08:34.582Z,132.52
2022-10-15T07:11:02.640Z,132.40
2022-10-15T07:13:30.281Z,107.03
2022-10-15T07:15:57.487Z,133.32
2022-10-15T07:18:24.701Z,129.38
2022-10-15T07:20:51.949Z,119.60
2022-10-15T07:23:21.880Z,127.13
2022-10-15T07:25:51.422Z,117.82
2022-10-15T07:28:18.689Z,127.85
2022-10-15T07:30:45.880Z,122.00
2022-10-15T07:33:13.097Z,118.30
2022-10-15T07:35:40.271Z,116.05
2022-10-15T07:38:07.462Z,123.40
2022-10-15T07:40:34.646Z,103.22
2022-10-15T07:43:01.850Z,109.10
2022-10-15T07:45:29.071Z,109.68
2022-10-15T07:47:56.316Z,112.35
2022-10-15T07:50:23.506Z,75.47
2022-10-15T07:52:50.681Z,87.07
2022-10-15T07:55:17.933Z,113.40
2022-10-15T07:57:45.065Z,122.55
2022-10-15T08:00:12.534Z,105.38
2022-10-15T08:02:40.098Z,96.63
2022-10-15T08:05:07.956Z,92.43
2022-10-15T08:07:35.124Z,87.70
2022-10-15T08:10:02.477Z,76.95
2022-10-15T08:12:29.793Z,70.00
2022-10-15T08:14:57.069Z,73.55
2022-10-15T08:17:24.324Z,75.38
2022-10-15T08:19:51.453Z,73.25
2022-10-15T08:22:18.677Z,70.85
2022-10-15T08:24:45.881Z,71.50
2022-10-15T08:27:13.025Z,61.40
2022-10-15T08:29:40.154Z,60.53
2022-10-15T08:32:07.663Z,57.15
2022-10-15T08:34:34.780Z,56.40
2022-10-15T08:37:03.479Z,64.65
2022-10-15T08:39:30.890Z,54.97
2022-10-15T08:42:00.335Z,60.15
2022-10-15T08:44:29.890Z,54.70
2022-10-15T08:47:03.627Z,53.13
2022-10-15T08:49:49.604Z,53.13
2022-10-15T08:52:25.356Z,59.83
2022-10-15T08:54:53.095Z,50.95
2022-10-15T08:57:39.409Z,52.20
2022-10-15T09:00:12.917Z,52.63
2022-10-15T09:02:48.705Z,52.78
2022-10-15T09:05:31.136Z,48.80
2022-10-15T09:08:13.606Z,47.22
2022-10-15T09:10:44.692Z,47.63
2022-10-15T09:13:16.613Z,49.10
2022-10-15T09:15:52.409Z,48.05
2022-10-15T09:18:22.768Z,46.05
2022-10-15T09:20:50.541Z,46.75
2022-10-15T09:23:19.550Z,46.22
2022-10-15T09:25:50.391Z,49.08
2022-10-15T09:28:19.232Z,50.22
2022-10-15T09:30:49.334Z,53.83
2022-10-15T09:33:25.483Z,53.03
2022-10-15T09:36:03.134Z,57.28
2022-10-15T09:38:33.271Z,61.47
2022-10-15T09:41:19.162Z,61.92
2022-10-15T09:46:13.769Z,57.13
2022-10-15T09:48:44.686Z,59.55
2022-10-15T09:51:15.925Z,62.83
2022-10-15T09:54:03.348Z,67.13
2022-10-15T09:56:36.806Z,67.18
2022-10-15T09:59:05.998Z,68.55
2022-10-15T10:01:36.852Z,70.07
2022-10-15T10:04:33.272Z,69.70
2022-10-15T10:07:07.397Z,71.95
2022-10-15T10:09:36.957Z,69.05
2022-10-15T10:12:08.612Z,67.43
2022-10-15T10:15:02.080Z,64.45
2022-10-15T10:17:30.159Z,66.80
2022-10-15T10:20:17.600Z,63.92
2022-10-15T10:22:46.599Z,64.18
2022-10-15T10:25:36.957Z,63.85
2022-10-15T10:28:15.573Z,56.42
2022-10-15T10:31:15.105Z,58.67
2022-10-15T10:33:45.285Z,51.63
2022-10-15T10:36:30.794Z,50.40
2022-10-15T10:38:57.922Z,47.75
2022-10-15T10:41:25.078Z,50.75
2022-10-15T10:43:56.228Z,51.83
2022-10-15T10:46:24.523Z,51.30
2022-10-15T10:48:52.915Z,48.15
2022-10-15T10:51:27.136Z,48.15
2022-10-15T10:53:56.446Z,41.88
2022-10-15T10:56:29.736Z,44.85
2022-10-15T10:58:58.969Z,41.25
2022-10-15T11:01:26.168Z,38.17
2022-10-15T11:03:53.719Z,37.10
2022-10-15T11:06:46.995Z,37.78
2022-10-15T11:09:20.165Z,36.88
2022-10-15T11:11:50.151Z,34.38
2022-10-15T11:14:43.934Z,34.65
2022-10-15T11:17:29.896Z,34.40
2022-10-15T11:22:47.125Z,31.63
2022-10-15T11:25:33.516Z,37.30
2022-10-15T11:28:03.664Z,25.73
2022-10-15T11:30:35.590Z,32.28
2022-10-15T11:33:15.384Z,29.85
2022-10-15T11:35:54.205Z,28.00
2022-10-15T11:38:27.811Z,28.33
2022-10-15T11:41:00.933Z,25.60
2022-10-15T11:43:34.007Z,27.48
2022-10-15T11:46:06.453Z,23.95
2022-10-15T11:48:51.659Z,23.02
2022-10-15T11:51:30.884Z,23.83
2022-10-15T11:54:16.738Z,21.42
2022-10-15T11:59:15.592Z,24.63
2022-10-15T12:01:50.696Z,19.65
2022-10-15T12:04:36.500Z,19.75
2022-10-15T12:09:32.685Z,20.27
2022-10-15T12:12:06.293Z,19.75
2022-10-15T12:14:38.356Z,18.73
2022-10-15T12:17:22.716Z,22.27
2022-10-15T12:19:56.755Z,18.70
2022-10-15T12:22:40.744Z,20.10
2022-10-15T12:25:27.945Z,20.50
2022-10-15T12:28:05.674Z,17.15
2022-10-15T12:30:37.700Z,17.25
2022-10-15T12:33:05.709Z,19.33
2022-10-15T12:35:32.915Z,16.83
2022-10-15T12:38:10.468Z,21.48
2022-10-15T12:40:38.679Z,18.40
2022-10-15T12:43:21.430Z,18.20
2022-10-15T12:45:53.381Z,15.40
2022-10-15T12:48:31.269Z,17.17
2022-10-15T12:51:17.386Z,16.80
2022-10-15T12:53:45.500Z,14.77
2022-10-15T12:56:13.495Z,16.35
2022-10-15T12:58:41.365Z,16.90
2022-10-15T13:01:14.779Z,16.70
2022-10-15T13:03:53.302Z,18.10
2022-10-15T13:06:23.576Z,15.70
2022-10-15T13:09:09.290Z,19.48
2022-10-15T13:11:40.894Z,20.30
2022-10-15T13:14:19.616Z,22.42
2022-10-15T13:16:47.932Z,22.00
2022-10-15T13:19:22.704Z,23.50
2022-10-15T13:21:51.224Z,25.17
2022-10-15T13:24:20.492Z,24.23
2022-10-15T13:26:47.670Z,23.52
2022-10-15T13:29:18.776Z,24.65
2022-10-15T13:31:46.152Z,27.60
2022-10-15T13:34:30.225Z,27.35
2022-10-15T13:36:58.792Z,28.58
2022-10-15T13:39:52.836Z,28.58
2022-10-15T13:42:22.385Z,31.23
2022-10-15T13:45:01.237Z,30.33
2022-10-15T13:47:29.779Z,37.58
2022-10-15T13:50:15.437Z,34.83
2022-10-15T13:52:44.654Z,37.95
2022-10-15T13:55:23.185Z,37.08
2022-10-15T13:57:51.195Z,36.92
2022-10-15T14:00:26.690Z,42.03
2022-10-15T14:03:12.697Z,42.92
2022-10-15T14:05:39.903Z,38.95
2022-10-15T14:08:07.182Z,38.50
2022-10-15T14:10:34.513Z,39.10
2022-10-15T14:13:01.697Z,35.95
2022-10-15T14:15:42.742Z,40.50
2022-10-15T14:18:10.744Z,44.33
2022-10-15T14:20:37.943Z,42.15
2022-10-15T14:23:05.168Z,41.28
2022-10-15T14:25:32.371Z,39.92
2022-10-15T14:27:59.585Z,44.35
2022-10-15T14:30:28.856Z,43.10
2022-10-15T14:32:56.301Z,42.63
2022-10-15T14:35:41.533Z,42.65
2022-10-15T14:38:11.405Z,39.20
2022-10-15T14:40:38.694Z,41.22
2022-10-15T14:46:01.512Z,40.90
2022-10-15T14:48:36.799Z,39.78
2022-10-15T14:51:06.335Z,37.83
2022-10-15T14:53:36.925Z,36.55
2022-10-15T14:56:07.238Z,35.15
2022-10-15T14:58:34.816Z,33.28
2022-10-15T15:01:06.569Z,29.95
2022-10-15T15:03:41.102Z,33.80
2022-10-15T15:06:08.364Z,29.07
2022-10-15T15:08:35.589Z,42.72
2022-10-15T15:11:04.610Z,36.33
2022-10-15T15:13:33.275Z,42.00
2022-10-15T15:16:00.425Z,35.83
2022-10-15T15:18:28.373Z,29.73
2022-10-15T15:20:58.705Z,29.02
2022-10-15T15:23:27.746Z,25.50
2022-10-15T15:25:55.601Z,26.27
2022-10-15T15:28:23.767Z,28.25
2022-10-15T15:30:55.935Z,25.23
2022-10-15T15:33:23.068Z,24.98
2022-10-15T15:35:51.442Z,26.20
2022-10-15T15:38:19.160Z,27.30
2022-10-15T15:40:46.538Z,24.45
2022-10-15T15:43:14.539Z,24.80
2022-10-15T15:45:41.989Z,24.02
2022-10-15T15:48:09.323Z,25.15
2022-10-15T15:50:37.245Z,21.65
2022-10-15T15:53:04.965Z,19.17
2022-10-15T15:55:32.157Z,17.30
2022-10-15T15:57:59.319Z,21.15
2022-10-15T16:00:26.644Z,18.95
2022-10-15T16:02:55.583Z,16.65
2022-10-15T16:05:25.113Z,15.82
2022-10-15T16:07:52.397Z,12.18
2022-10-15T16:10:19.616Z,12.25
2022-10-15T16:12:46.772Z,10.30
2022-10-15T16:15:14.931Z,11.50
2022-10-15T16:17:43.193Z,11.43
2022-10-15T16:20:10.853Z,9.30
2022-10-15T16:22:38.028Z,9.75
2022-10-15T16:25:05.565Z,10.82
2022-10-15T16:27:34.455Z,9.20
2022-10-15T16:30:02.114Z,9.80
2022-10-15T16:32:29.266Z,10.05
2022-10-15T16:34:56.404Z,7.88
2022-10-15T16:37:23.838Z,10.27
2022-10-15T16:39:51.157Z,11.88
2022-10-15T16:44:51.024Z,9.13
2022-10-15T16:47:18.162Z,11.52
2022-10-15T16:49:45.442Z,8.68
2022-10-15T16:52:12.620Z,10.25
2022-10-15T16:54:39.789Z,7.88
2022-10-15T16:57:06.984Z,8.77
2022-10-15T16:59:34.222Z,7.10
2022-10-15T17:02:01.503Z,9.50
2022-10-15T17:04:28.863Z,10.38
2022-10-15T17:06:56.080Z,9.05
2022-10-15T17:09:24.072Z,8.38
2022-10-15T17:11:51.214Z,10.50
2022-10-15T17:14:18.750Z,10.40
2022-10-15T17:16:47.452Z,10.18
2022-10-15T17:19:15.201Z,12.73
2022-10-15T17:21:43.774Z,14.10
2022-10-15T17:24:14.957Z,14.70
2022-10-15T17:26:42.929Z,13.27
2022-10-15T17:29:20.012Z,20.30
2022-10-15T17:31:48.060Z,16.98
2022-10-15T17:34:15.426Z,22.35
2022-10-15T17:36:45.557Z,21.25
2022-10-15T17:39:13.764Z,18.55
2022-10-15T17:41:41.112Z,18.58
2022-10-15T17:44:08.465Z,17.38
2022-10-15T17:46:35.670Z,17.45
2022-10-15T17:49:03.605Z,16.77
2022-10-15T17:51:31.367Z,15.20
2022-10-15T17:53:58.937Z,14.45
2022-10-15T17:56:27.966Z,12.13
2022-10-15T17:58:55.354Z,17.40
2022-10-15T18:01:33.289Z,12.25
2022-10-15T18:04:07.087Z,10.77
2022-10-15T18:06:34.263Z,11.38
2022-10-15T18:09:01.642Z,11.70
2022-10-15T18:11:30.481Z,10.13
2022-10-15T18:13:57.845Z,10.93
2022-10-15T18:16:25.069Z,16.00
2022-10-15T18:18:52.765Z,10.18
2022-10-15T18:21:21.222Z,9.50
2022-10-15T18:23:48.532Z,13.10
2022-10-15T18:26:19.612Z,10.10
2022-10-15T18:28:47.697Z,10.40
2022-10-15T18:31:15.526Z,11.38
2022-10-15T18:33:46.853Z,13.25
2022-10-15T18:36:16.069Z,9.57
2022-10-15T18:38:43.417Z,10.52
2022-10-15T18:41:18.025Z,13.75
2022-10-15T18:43:45.216Z,10.93
2022-10-15T18:46:12.367Z,11.38
2022-10-15T18:48:39.548Z,14.52
2022-10-15T18:51:08.479Z,13.02
2022-10-15T18:53:35.940Z,17.27
2022-10-15T18:56:03.195Z,16.10
2022-10-15T18:58:30.362Z,14.00
2022-10-15T19:00:58.210Z,16.58
2022-10-15T19:03:25.681Z,13.48
2022-10-15T19:05:52.876Z,13.88
2022-10-15T19:08:21.437Z,15.95
2022-10-15T19:10:48.692Z,15.10
2022-10-15T19:13:15.825Z,13.95
2022-10-15T19:15:43.104Z,11.95
2022-10-15T19:18:11.571Z,12.88
2022-10-15T19:20:40.277Z,11.68
2022-10-15T19:23:07.433Z,12.30
2022-10-15T19:25:34.650Z,14.45
2022-10-15T19:28:01.892Z,12.25
2022-10-15T19:30:29.369Z,13.05
2022-10-15T19:32:56.505Z,10.85
2022-10-15T19:35:23.663Z,13.45
2022-10-15T19:37:50.890Z,10.73
2022-10-15T19:40:18.165Z,12.98
2022-10-15T19:42:45.345Z,14.75
2022-10-15T19:45:12.548Z,14.85
2022-10-15T19:47:39.767Z,19.08
2022-10-15T19:50:07.159Z,14.57
2022-10-15T19:52:34.338Z,12.90
2022-10-15T19:55:02.823Z,14.15
2022-10-15T19:57:30.025Z,11.20
2022-10-15T19:59:57.157Z,12.77
2022-10-15T20:02:24.408Z,14.63
2022-10-15T20:04:51.532Z,15.48
2022-10-15T20:07:18.715Z,12.80
2022-10-15T20:09:45.865Z,12.38
2022-10-15T20:12:13.049Z,11.52
2022-10-15T20:14:40.205Z,10.63
2022-10-15T20:17:07.352Z,9.25
2022-10-15T20:19:34.509Z,13.57
2022-10-15T20:22:01.689Z,10.77
2022-10-15T20:24:28.864Z,9.95
2022-10-15T20:26:56.057Z,9.60
2022-10-15T20:29:25.013Z,9.40
2022-10-15T20:31:52.246Z,9.15
2022-10-15T20:34:19.631Z,7.00
2022-10-15T20:36:46.811Z,9.88
2022-10-15T20:39:13.945Z,7.43
2022-10-15T20:41:41.401Z,9.13
2022-10-15T20:44:11.120Z,11.57
2022-10-15T20:46:42.169Z,9.20
2022-10-15T20:49:16.230Z,8.20
2022-10-15T20:51:44.085Z,7.50
2022-10-15T20:54:12.597Z,14.57
2022-10-15T20:56:40.299Z,10.27
2022-10-15T20:59:07.474Z,13.32
2022-10-15T21:01:35.384Z,12.82
2022-10-15T21:04:02.619Z,16.75
2022-10-15T21:06:29.764Z,11.00
2022-10-15T21:08:57.266Z,11.30
2022-10-15T21:11:24.462Z,10.25
2022-10-15T21:13:51.662Z,11.85
2022-10-15T21:16:18.861Z,11.13
2022-10-15T21:18:46.072Z,13.18
2022-10-15T21:21:13.873Z,15.18
2022-10-15T21:23:41.986Z,11.60
2022-10-15T21:26:10.540Z,8.63
2022-10-15T21:28:37.793Z,13.38
2022-10-15T21:31:08.689Z,13.25
2022-10-15T21:33:38.676Z,13.20
2022-10-15T21:36:12.942Z,9.70
2022-10-15T21:38:40.260Z,11.20
2022-10-15T21:41:07.877Z,8.77
2022-10-15T21:43:35.770Z,12.77
2022-10-15T21:46:09.938Z,14.25
2022-10-15T21:48:37.604Z,10.32
2022-10-15T21:51:06.001Z,6.38
2022-10-15T21:53:33.675Z,10.35
2022-10-15T21:56:00.897Z,7.18
2022-10-15T21:58:28.029Z,5.63
2022-10-15T22:00:55.306Z,12.30
2022-10-15T22:03:23.169Z,14.05
2022-10-15T22:05:50.741Z,10.02
2022-10-15T22:08:17.865Z,8.75
2022-10-15T22:10:45.027Z,9.02
2022-10-15T22:13:12.200Z,5.47
2022-10-15T22:15:39.341Z,10.68
2022-10-15T22:18:06.472Z,10.20
2022-10-15T22:20:33.682Z,6.35
2022-10-15T22:23:00.851Z,10.88
2022-10-15T22:25:27.988Z,8.20
2022-10-15T22:27:55.123Z,9.20
2022-10-15T22:30:22.315Z,8.05
2022-10-15T22:32:49.485Z,7.95
2022-10-15T22:35:16.627Z,12.10
2022-10-15T22:37:43.782Z,7.53
2022-10-15T22:40:12.288Z,6.55
2022-10-15T22:42:39.510Z,5.68
2022-10-15T22:45:06.991Z,5.85
2022-10-15T22:47:34.138Z,9.20
2022-10-15T22:52:29.380Z,10.13
2022-10-15T22:54:56.509Z,11.18
2022-10-15T22:57:23.663Z,6.90
2022-10-15T22:59:55.874Z,9.93
2022-10-15T23:02:26.077Z,3.85
2022-10-15T23:04:53.429Z,6.75
2022-10-15T23:07:20.566Z,7.30
2022-10-15T23:09:48.944Z,7.93
2022-10-15T23:12:16.157Z,9.57
2022-10-15T23:14:43.295Z,9.20
2022-10-15T23:17:10.538Z,11.20
2022-10-15T23:19:37.689Z,6.78
2022-10-15T23:22:04.820Z,7.10
2022-10-15T23:24:32.121Z,9.13
2022-10-15T23:26:59.327Z,4.65
2022-10-15T23:29:27.003Z,12.52
2022-10-15T23:31:54.565Z,8.48
2022-10-15T23:34:23.517Z,10.95
2022-10-15T23:36:51.041Z,7.43
2022-10-15T23:39:19.797Z,6.78
2022-10-15T23:41:47.093Z,3.95
2022-10-15T23:44:14.329Z,6.45
2022-10-15T23:46:41.657Z,7.60
2022-10-15T23:49:08.896Z,8.48
2022-10-15T23:51:36.367Z,5.85
2022-10-15T23:54:04.473Z,5.53
2022-10-15T23:56:31.702Z,5.38
2022-10-15T23:59:00.305Z,7.07
